Nearby METAR Reports

 

K8A0 - Albertville Muni, AL
Distance from station: SW 1mi, 2km
Updated: Fri, 20-May-2022 6:15pm CDT
Clear
Clear
 Wind from SSW
Wind: SSW 5 mph , 7 km/h
Temperature: 84°F , 29°C
Heat Index: 85°F , 29°C
Dew Point: 63°F , 17°C
Humidity: 48%
Barometer: 29.92 inHg , 1013.2 hPa
Clouds: Clear
Visibility: 10 miles , 16 km
2022/05/20 23:15 K8A0 202315Z AUTO 20004KT 10SM CLR 29/17 A2992 RMK AO2
KGAD - Gadsden Muni, AL
Distance from station: SSE 21mi, 35km
Updated: Fri, 20-May-2022 5:56pm CDT
Clear
Clear
 Wind from S
Wind: S 6 mph , 9 km/h
Temperature: 88°F , 31°C
Heat Index: 91°F , 33°C
Dew Point: 66°F , 19°C
Humidity: 49%
Barometer: 29.92 inHg , 1013.2 hPa
Clouds: Clear
Visibility: 10 miles , 16 km
2022/05/20 22:56 KGAD 202256Z AUTO 19005KT 10SM CLR 31/19 A2992 RMK AO2 SLP128 T03060189 $
 
K4A6 - Scottsboro, AL
Distance from station: NNE 33mi, 53km
Updated: Fri, 20-May-2022 6:15pm CDT
Clear
Clear
 Wind from SSW
Wind: SSW 9 mph , 15 km/h, Gust: 20 mph , 31 km/h
Temperature: 88°F , 31°C
Heat Index: 90°F , 32°C
Dew Point: 64°F , 18°C
Humidity: 46%
Barometer: 29.90 inHg , 1012.5 hPa
Clouds: Clear
Visibility: 10 miles , 16 km
2022/05/20 23:15 K4A6 202315Z AUTO 21008G17KT 10SM CLR 31/18 A2990 RMK AO2
K4A9 - Ft Payne, AL
Distance from station: ENE 33mi, 54km
Updated: Fri, 20-May-2022 6:15pm CDT
Partly cloudy
Partly cloudy
 Wind from SSW
Wind: SSW 10 mph , 17 km/h
Temperature: 86°F , 30°C
Heat Index: 87°F , 31°C
Dew Point: 63°F , 17°C
Humidity: 46%
Barometer: 29.92 inHg , 1013.2 hPa
Clouds: Partly cloudy
Visibility: 10 miles , 16 km
Cloud details: Partly cloudy 5500 ft
Partly cloudy 7000 ft
2022/05/20 23:15 K4A9 202315Z AUTO 21009KT 10SM SCT055 SCT070 30/17 A2992 RMK AO2 T02950170
 
KMDQ - Huntsville, AL
Distance from station: NNW 47mi, 75km
Updated: Fri, 20-May-2022 6:15pm CDT
Clear
Clear
 Wind from SSW
Wind: SSW 15 mph , 24 km/h, Gust: 23 mph , 37 km/h
Barometer: 29.89 inHg , 1012.2 hPa
Clouds: Clear
Visibility: 10 miles , 16 km
2022/05/20 23:15 KMDQ 202315Z AUTO 20013G20KT 10SM CLR A2989 RMK A02
KDCU - Decatur, AL
Distance from station: NW 49mi, 80km
Updated: Fri, 20-May-2022 5:53pm CDT
Clear
Clear
 Wind from SSW
Wind: SSW 12 mph , 19 km/h, Gust: 23 mph , 37 km/h
Temperature: 88°F , 31°C
Heat Index: 89°F , 32°C
Dew Point: 63°F , 17°C
Humidity: 43%
Barometer: 29.88 inHg , 1011.9 hPa
Clouds: Clear
Visibility: 10 miles , 16 km
2022/05/20 22:53 KDCU 202253Z AUTO 20010G20KT 10SM CLR 31/17 A2988 RMK AO2 SLP111 T03060172
 
KGKT - Sevierville, TN
Distance from station: NE 235mi, 378km
Updated: Wed, 04-May-2022 2:25am CDT
NOT Current
Mostly cloudy
Mostly cloudy
 Wind from WSW
Wind: WSW 7 mph , 11 km/h
Temperature: 72°F , 22°C
Dew Point: 63°F , 17°C
Humidity: 73%
Barometer: 29.96 inHg , 1014.6 hPa
Clouds: Mostly cloudy
Visibility: 10 miles , 16 km
Cloud details: Partly cloudy 3900 ft
Partly cloudy 4800 ft
Mostly cloudy 7000 ft
2022/05/04 07:25 KGKT 040725Z AUTO 24006KT 10SM SCT039 SCT048 BKN070 22/17 A2996 RMK A01
KSSI - Jeckyll Island, GA
Distance from station: SE 467mi, 752km
Updated: Fri, 20-May-2022 5:53pm CDT
Clear
Clear
 Wind from SE
Wind: SE 15 mph , 24 km/h, Gust: 22 mph , 35 km/h
Temperature: 82°F , 28°C
Heat Index: 87°F , 31°C
Dew Point: 73°F , 23°C
Humidity: 74%
Barometer: 30.01 inHg , 1016.3 hPa
Clouds: Clear
Visibility: 10 miles , 16 km
2022/05/20 22:53 KSSI 202253Z AUTO 14013G19KT 10SM CLR 28/23 A3001 RMK AO2 SLP162 T02830233
 
KECP - Panama City, FL
Distance from station: S 330mi, 531km
Updated: Fri, 20-May-2022 5:53pm CDT
Clear
Clear
 Wind from SSE
Wind: SSE 12 mph , 19 km/h
Temperature: 82°F , 28°C
Heat Index: 87°F , 31°C
Dew Point: 73°F , 23°C
Humidity: 74%
Barometer: 29.96 inHg , 1014.6 hPa
Clouds: Clear
Visibility: 10 miles , 16 km
2022/05/20 22:53 KECP 202253Z 16010KT 10SM CLR 28/23 A2996 RMK AO1 SLP157 T02780228
KTPA - Tampa, FL,
Distance from station: S 600mi, 965km
Updated: Fri, 20-May-2022 5:53pm CDT
Mostly cloudy
Mostly cloudy
 Wind from S
Wind: S 10 mph , 17 km/h
Temperature: 86°F , 30°C
Heat Index: 93°F , 34°C
Dew Point: 73°F , 23°C
Humidity: 66%
Barometer: 30.02 inHg , 1016.6 hPa
Clouds: Mostly cloudy
Visibility: 10 miles , 16 km
Cloud details: Few Clouds 2500 ft
Mostly cloudy 10000 ft
Mostly cloudy 25000 ft
2022/05/20 22:53 KTPA 202253Z 19009KT 10SM FEW025 BKN100 BKN250 30/23 A3002 RMK AO2 LTG DSNT E SLP165 T03000233
 
KMTH - Marathon, FL,
Distance from station: S 915mi, 1473km
Updated: Fri, 20-May-2022 5:53pm CDT
Few Clouds
Few Clouds
 Wind from ESE
Wind: ESE 8 mph , 13 km/h
Temperature: 84°F , 29°C
Heat Index: 96°F , 36°C
Dew Point: 79°F , 26°C
Humidity: 84%
Barometer: 30.01 inHg , 1016.3 hPa
Clouds: Few Clouds
Visibility: 8 miles , 13 km
Cloud details: Few Clouds 1100 ft
2022/05/20 22:53 KMTH 202253Z AUTO 12007KT 8SM FEW011 29/26 A3001 RMK AO2 SLP160 T02940261 $
KNYL - Yuma, AZ
Distance from station: W 3147mi, 5065km
Updated: Fri, 20-May-2022 5:57pm CDT
Clear
Clear
 Wind from SSE
Wind: SSE 25 mph , 41 km/h
Temperature: 90°F , 32°C
Dew Point: 52°F , 11°C
Humidity: 27%
Barometer: 29.57 inHg , 1001.4 hPa
Clouds: Clear
Visibility: 7 miles , 11 km
2022/05/20 22:57 KNYL 202257Z 16022KT 7SM CLR 32/11 A2957 RMK AO2 PK WND 15027/2247 SLP009 T03220106 $
 
PABI - Ft. Greely, AK
Distance from station: NW 4300mi, 7167km
Updated: Fri, 20-May-2022 5:53pm CDT
Few Clouds
Few Clouds
 Wind from calm
Wind: Calm
Temperature: 64°F , 18°C
Dew Point: 30°F , -1°C
Humidity: 28%
Barometer: 30.35 inHg , 1027.8 hPa
Clouds: Few Clouds
Visibility: 10 miles , 16 km
Cloud details: Few Clouds 20000 ft
2022/05/20 22:53 PABI 202253Z 00000KT 10SM FEW200 18/M01 A3035 RMK AO2 SLP283 T01831011